Other Surface Observations
Issued by NWS Missoula, MT

Home | Current Version | Previous Version | Text Only | Print | Product List | Glossary On
Versions: 1 2 3 4 5 6 7 8 9 10 11 12 13 14 15 16 17 18 19 20 21 22 23 24 25 26 27 28 29 30 31 32 33 34 35 36 37 38 39 40 41 42 43 44 45 46 47 48 49 50
000
SXUS55 KMSO 281943
OSOMSO
MONTANA AWOS SUMMARY
NATIONAL WEATHER SERVICE MISSOULA MT
142 PM MDT FRI AUG 28 2015

Montana AWOS Reports

LAUREL      |K6S8 281935Z AUTO 00000KT 10SM 29/07 A3006 RMK AO1 T02890072
TWIN BRIDGES|K7S1 281935Z AUTO 00000KT 7SM 24/09 A3012 RMK AO1 T02390089
ROUNDUP     |KRPX 281935Z AUTO 19007KT 160V220 25SM 31/03 A2996 RMK AO1 T03110033
MALTA       |KM75 281935Z AUTO 22008KT 7SM 28/08 A2991 RMK AO1 T02830083




USA.gov is the U.S. government's official web portal to all federal, state and local government web resources and services.